Time;durP1;ratioP1;P1;durP2;ratioP2;P2;SDS_P1;SDS_P2;PMS_P1;PMS_P2;Temp;Humidity;BMP_temperature;BMP_pressure;BME280_temperature;BME280_humidity;BME280_pressure;Samples;Min_cycle;Max_cycle;Signal;HPM_P1;HPM_P2
2022/01/24 00:01:45;;;;;;;10.65;6.47;;;;;;;-1.24;61.29;95129.69;5025768;28;20196;-69
2022/01/24 00:04:10;;;;;;;7.78;7.00;;;;;;;-0.99;61.05;95126.19;5028441;28;20200;-70
2022/01/24 00:06:36;;;;;;;13.93;10.07;;;;;;;-0.79;61.05;95129.03;5007787;28;20202;-69
2022/01/24 00:09:04;;;;;;;12.23;8.90;;;;;;;-0.78;61.05;95138.38;5025803;28;20188;-69
2022/01/24 00:11:41;;;;;;;12.10;9.52;;;;;;;-0.96;60.98;95139.72;5026587;28;20208;-69
2022/01/24 00:27:41;;;;;;;11.93;8.00;;;;;;;-0.76;61.69;95146.78;5005723;28;20224;-70
2022/01/24 00:30:07;;;;;;;11.90;8.87;;;;;;;-0.77;61.31;95147.72;5007798;28;20185;-70
2022/01/24 00:32:33;;;;;;;11.90;8.83;;;;;;;-0.47;61.17;95151.53;4987481;28;20188;-69
2022/01/24 00:34:58;;;;;;;10.60;9.60;;;;;;;-0.41;61.30;95154.47;5005127;28;20188;-70
2022/01/24 00:37:23;;;;;;;10.30;9.37;;;;;;;-0.67;61.27;95148.66;5007342;28;20181;-69
2022/01/24 00:39:49;;;;;;;8.33;7.37;;;;;;;-1.02;62.05;95149.50;5012074;28;20192;-69
2022/01/24 00:45:02;;;;;;;13.38;9.18;;;;;;;-0.87;62.29;95151.91;5015909;28;20195;-70
2022/01/24 00:47:41;;;;;;;9.63;8.48;;;;;;;-1.29;63.38;95162.59;5010117;28;20191;-70
2022/01/24 00:55:17;;;;;;;12.45;8.80;;;;;;;-1.11;63.10;95165.56;5006661;28;20929;-70
2022/01/24 00:57:42;;;;;;;16.17;10.13;;;;;;;-1.03;63.06;95158.13;5008341;28;20280;-70
2022/01/24 01:00:08;;;;;;;13.60;10.57;;;;;;;-1.04;63.38;95158.25;5010875;28;20200;-69
2022/01/24 01:02:34;;;;;;;15.23;10.13;;;;;;;-1.38;62.98;95164.03;5010919;28;20776;-69
2022/01/24 01:05:17;;;;;;;15.20;9.40;;;;;;;-1.20;63.51;95166.22;4993882;28;20241;-70
2022/01/24 01:18:43;;;;;;;12.45;10.10;;;;;;;-0.70;61.14;95158.34;5011122;28;20208;-71
2022/01/24 01:21:16;;;;;;;11.40;9.47;;;;;;;-0.81;61.00;95162.53;5007374;28;20188;-70
2022/01/24 01:23:47;;;;;;;13.60;10.45;;;;;;;-0.90;62.33;95152.94;4991182;28;20200;-70
2022/01/24 01:26:37;;;;;;;10.48;9.40;;;;;;;-0.44;60.19;95159.00;5016323;28;20224;-71
2022/01/24 01:29:12;;;;;;;10.25;9.25;;;;;;;-0.61;60.17;95157.69;5028282;28;20187;-70
2022/01/24 01:34:50;;;;;;;16.35;9.85;;;;;;;-0.39;60.29;95156.91;4998349;28;20545;-70
2022/01/24 01:56:24;;;;;;;11.73;10.07;;;;;;;-0.90;61.90;95157.25;5028677;28;20247;-70
2022/01/24 01:58:50;;;;;;;12.37;10.70;;;;;;;-0.74;61.09;95155.22;5027259;28;20184;-70
2022/01/24 02:01:15;;;;;;;13.00;9.87;;;;;;;-0.86;61.17;95158.66;5027167;28;20189;-70
2022/01/24 02:03:41;;;;;;;13.60;10.13;;;;;;;-0.92;61.30;95153.97;5025820;28;20207;-70
2022/01/24 02:06:07;;;;;;;11.73;10.20;;;;;;;-1.04;61.94;95150.56;5023605;28;20188;-70
2022/01/24 02:08:33;;;;;;;8.07;5.30;;;;;;;-1.06;61.84;95155.81;5027845;28;20497;-70
2022/01/24 02:11:00;;;;;;;13.45;9.90;;;;;;;-0.57;60.33;95151.38;5027636;28;20547;-70
2022/01/24 02:13:27;;;;;;;15.57;10.90;;;;;;;-1.09;61.79;95153.44;5027880;28;20191;-70
2022/01/24 02:23:39;;;;;;;15.65;10.98;;;;;;;-1.00;61.92;95162.25;5027972;28;20548;-71
2022/01/24 02:26:10;;;;;;;16.50;12.50;;;;;;;-0.99;61.49;95153.59;5027477;28;20235;-69
2022/01/24 02:31:45;;;;;;;15.95;11.70;;;;;;;-1.25;61.94;95168.28;5007889;28;20280;-69
2022/01/24 02:34:29;;;;;;;16.20;12.70;;;;;;;-1.31;62.70;95168.72;5027402;28;20203;-69
2022/01/24 02:36:59;;;;;;;14.10;9.43;;;;;;;-1.85;64.11;95169.94;5014912;28;20199;-70
2022/01/24 02:50:25;;;;;;;16.38;10.30;;;;;;;-0.51;60.60;95173.25;5014087;28;20187;-69
2022/01/24 02:52:51;;;;;;;13.20;10.98;;;;;;;-0.41;59.96;95176.78;5026439;28;20187;-69
2022/01/24 02:55:16;;;;;;;12.90;11.53;;;;;;;-0.42;60.38;95180.28;5026573;28;20267;-70
2022/01/24 02:57:42;;;;;;;14.70;12.60;;;;;;;-0.41;60.41;95187.06;5026098;28;20184;-69
2022/01/24 03:00:08;;;;;;;13.83;8.60;;;;;;;-0.77;61.03;95183.69;5026358;28;20239;-69
2022/01/24 03:02:33;;;;;;;9.70;8.30;;;;;;;-0.72;60.40;95181.63;5007753;28;20203;-69
2022/01/24 03:04:59;;;;;;;17.57;11.47;;;;;;;-1.02;61.68;95195.72;5026289;28;20184;-69
2022/01/24 03:07:25;;;;;;;13.90;11.27;;;;;;;-0.94;61.65;95197.75;5026119;28;20176;-69
2022/01/24 03:09:54;;;;;;;11.32;10.10;;;;;;;-0.69;60.81;95196.78;5026540;28;20184;-70
2022/01/24 03:12:39;;;;;;;12.55;10.82;;;;;;;-0.47;60.08;95205.53;5026047;28;20204;-69
2022/01/24 03:15:06;;;;;;;12.48;10.57;;;;;;;-0.52;60.70;95203.28;5026124;28;20203;-70
2022/01/24 03:17:31;;;;;;;16.35;10.90;;;;;;;-0.72;60.86;95202.16;5025673;28;20242;-69
2022/01/24 03:19:57;;;;;;;12.30;9.37;;;;;;;-0.60;60.75;95205.59;5025942;28;20175;-69
2022/01/24 03:22:22;;;;;;;14.70;11.90;;;;;;;-0.48;59.86;95199.53;5026064;28;20180;-70
2022/01/24 03:24:49;;;;;;;13.40;10.50;;;;;;;-0.50;59.66;95205.72;5025794;28;20280;-69
2022/01/24 03:27:15;;;;;;;17.40;11.10;;;;;;;-1.17;61.62;95207.09;5024670;28;20224;-69
2022/01/24 03:29:40;;;;;;;14.25;11.75;;;;;;;-0.63;60.61;95211.75;5024908;28;20206;-69
2022/01/24 03:32:06;;;;;;;14.07;11.00;;;;;;;-0.65;60.16;95217.94;5025160;28;20232;-70
2022/01/24 03:34:32;;;;;;;14.43;11.67;;;;;;;-0.30;59.71;95210.22;5025242;28;20206;-70
2022/01/24 03:36:57;;;;;;;18.07;12.97;;;;;;;-0.33;59.67;95207.88;5025144;28;20427;-71
2022/01/24 03:39:22;;;;;;;15.93;11.87;;;;;;;-0.28;59.17;95215.25;5024956;28;20210;-70
2022/01/24 03:41:48;;;;;;;16.53;11.60;;;;;;;-0.11;59.90;95219.16;5025020;28;20184;-70
2022/01/24 03:44:15;;;;;;;12.43;10.40;;;;;;;0.15;58.80;95232.63;5025247;28;20195;-69
2022/01/24 03:52:10;;;;;;;14.75;10.95;;;;;;;-0.39;59.34;95234.03;5012912;28;20238;-69
2022/01/24 03:54:36;;;;;;;16.40;11.97;;;;;;;-0.23;59.55;95234.56;5024168;28;20242;-69
2022/01/24 03:57:03;;;;;;;14.07;10.63;;;;;;;-0.10;59.15;95237.03;5011259;28;20186;-69
2022/01/24 03:59:32;;;;;;;16.38;11.23;;;;;;;0.03;59.12;95229.22;5023757;28;20239;-70
2022/01/24 04:01:59;;;;;;;12.60;11.27;;;;;;;0.14;59.14;95239.53;5018952;28;20242;-69
2022/01/24 04:04:25;;;;;;;10.60;9.50;;;;;;;-0.31;59.40;95241.19;5007200;28;20184;-69
2022/01/24 04:06:51;;;;;;;16.35;11.82;;;;;;;0.02;59.08;95247.34;5024531;28;20192;-70
2022/01/24 04:09:17;;;;;;;15.13;10.90;;;;;;;-0.50;60.03;95252.00;5006669;28;20187;-70
2022/01/24 04:11:42;;;;;;;15.33;11.40;;;;;;;-0.43;59.96;95253.19;5018141;28;20639;-69
2022/01/24 04:22:08;;;;;;;23.83;13.85;;;;;;;-0.95;61.69;95272.34;5024503;28;20183;-69
2022/01/24 04:24:33;;;;;;;22.50;13.77;;;;;;;-0.79;61.22;95273.72;5024718;28;20210;-69
2022/01/24 04:26:59;;;;;;;19.00;12.20;;;;;;;-0.58;60.52;95274.88;4981268;28;1253757;-69
2022/01/24 04:29:24;;;;;;;19.67;11.47;;;;;;;-0.60;60.30;95273.22;5024777;28;20192;-71
2022/01/24 04:31:50;;;;;;;15.90;10.80;;;;;;;-0.96;61.09;95279.22;5024610;28;20283;-69
2022/01/24 04:34:15;;;;;;;13.10;10.30;;;;;;;-0.80;60.40;95281.53;5023169;28;20592;-70
2022/01/24 04:36:41;;;;;;;16.03;10.67;;;;;;;-0.69;59.32;95281.59;5024752;28;20196;-70
2022/01/24 04:39:07;;;;;;;12.83;10.23;;;;;;;-0.71;60.15;95291.16;5025243;28;20207;-70
2022/01/24 04:41:37;;;;;;;16.00;11.82;;;;;;;-0.76;59.70;95300.13;5024570;28;20208;-70
2022/01/24 04:44:32;;;;;;;14.63;11.20;;;;;;;-0.76;59.91;95306.06;5010093;28;20227;-71
2022/01/24 04:52:34;;;;;;;12.45;8.93;;;;;;;-0.89;57.80;95310.44;5025129;28;20207;-70
2022/01/24 04:54:59;;;;;;;10.52;8.30;;;;;;;-1.07;57.84;95313.38;5024994;28;21010;-70
2022/01/24 04:57:27;;;;;;;10.93;8.73;;;;;;;-0.76;57.37;95312.97;5024696;28;20204;-70
2022/01/24 04:59:59;;;;;;;10.93;9.63;;;;;;;-0.75;57.10;95314.63;5024368;28;20188;-69
2022/01/24 05:02:25;;;;;;;15.55;10.38;;;;;;;-0.39;56.52;95313.75;5021462;28;20708;-71
2022/01/24 05:04:56;;;;;;;14.15;8.52;;;;;;;-0.33;55.53;95317.63;5024206;28;20781;-70
2022/01/24 05:07:22;;;;;;;11.70;10.20;;;;;;;-0.71;56.67;95324.56;5024411;28;20189;-70
2022/01/24 05:09:58;;;;;;;13.65;9.10;;;;;;;-0.51;56.45;95324.88;5024001;28;20188;-70
2022/01/24 05:21:23;;;;;;;13.32;9.93;;;;;;;-0.87;57.17;95332.53;5024729;28;20196;-70
2022/01/24 05:23:35;;;;;;;9.77;6.90;;;;;;;-1.26;58.18;95351.50;5014619;28;20209;-70
2022/01/24 05:26:03;;;;;;;12.82;8.73;;;;;;;-1.23;57.93;95356.44;5029068;28;20219;-69
2022/01/24 05:28:29;;;;;;;15.75;9.23;;;;;;;-1.15;57.40;95359.31;5008748;28;20251;-69
2022/01/24 05:30:55;;;;;;;11.80;9.18;;;;;;;-0.92;57.11;95372.31;5030474;28;20227;-70
2022/01/24 05:33:21;;;;;;;13.23;9.30;;;;;;;-1.16;57.48;95367.91;5026799;28;20603;-69
2022/01/24 05:35:46;;;;;;;12.70;10.03;;;;;;;-1.17;57.89;95371.44;5007757;28;20176;-69
2022/01/24 05:38:12;;;;;;;13.77;9.00;;;;;;;-1.04;57.09;95381.69;5009568;28;20216;-69
2022/01/24 05:40:39;;;;;;;13.30;8.90;;;;;;;-1.03;56.89;95384.13;4997312;28;20180;-70
2022/01/24 05:43:06;;;;;;;12.55;9.60;;;;;;;-0.85;56.42;95387.19;5011417;28;20207;-70
2022/01/24 05:45:33;;;;;;;13.20;8.55;;;;;;;-0.37;55.64;95386.44;5029738;28;20188;-70
2022/01/24 05:47:58;;;;;;;15.60;11.55;;;;;;;-0.74;56.20;95383.91;5014323;28;20196;-70
2022/01/24 05:50:24;;;;;;;12.93;9.43;;;;;;;-1.36;55.85;95387.25;5026602;28;20199;-70
2022/01/24 05:52:49;;;;;;;10.53;9.43;;;;;;;-1.07;55.51;95392.97;5022026;28;20193;-70
2022/01/24 05:55:16;;;;;;;10.97;9.07;;;;;;;-0.76;54.98;95396.00;5023769;28;20214;-70
2022/01/24 05:57:41;;;;;;;11.05;9.27;;;;;;;-0.49;53.69;95395.03;5002307;28;20268;-70
2022/01/24 06:00:10;;;;;;;14.20;10.17;;;;;;;-0.91;54.61;95402.19;5027080;28;20584;-70
2022/01/24 06:02:35;;;;;;;12.45;9.88;;;;;;;-0.73;54.07;95416.34;5026644;28;20177;-70
2022/01/24 06:05:01;;;;;;;12.03;7.63;;;;;;;-0.57;53.58;95413.53;5009903;28;20219;-71
2022/01/24 06:07:26;;;;;;;11.13;8.60;;;;;;;-0.61;53.21;95428.38;5025990;28;20184;-70
2022/01/24 06:09:52;;;;;;;8.30;7.53;;;;;;;-1.01;53.81;95432.84;5027054;28;20191;-69
2022/01/24 06:12:18;;;;;;;10.93;7.40;;;;;;;-0.99;54.15;95444.66;5009736;28;20211;-70
2022/01/24 06:14:43;;;;;;;7.07;6.37;;;;;;;-0.68;52.44;95440.00;5027998;28;20220;-70
2022/01/24 06:17:10;;;;;;;5.03;4.63;;;;;;;-0.77;52.19;95445.75;5027437;28;20243;-70
2022/01/24 06:19:36;;;;;;;6.80;5.88;;;;;;;-1.16;52.27;95444.13;5025870;28;20180;-70
2022/01/24 06:22:02;;;;;;;6.57;5.97;;;;;;;-1.11;52.24;95453.19;5027273;28;20191;-70
2022/01/24 06:24:27;;;;;;;5.40;4.87;;;;;;;-0.91;51.58;95454.41;5028895;28;20198;-69
2022/01/24 06:26:53;;;;;;;6.77;5.30;;;;;;;-0.93;51.66;95456.28;5027234;28;20224;-70
2022/01/24 06:29:18;;;;;;;4.07;3.77;;;;;;;-0.68;50.71;95455.41;5010142;28;20199;-69
2022/01/24 06:31:44;;;;;;;6.77;5.83;;;;;;;-0.36;49.89;95449.81;5009270;28;20210;-69
2022/01/24 06:34:10;;;;;;;6.00;5.37;;;;;;;-0.85;51.59;95450.59;5026900;28;20176;-70
2022/01/24 06:36:35;;;;;;;8.07;5.50;;;;;;;-0.64;50.84;95456.84;5026383;28;20224;-69
2022/01/24 06:39:03;;;;;;;9.07;6.97;;;;;;;-0.57;51.26;95457.22;5026397;28;20240;-70
2022/01/24 06:41:32;;;;;;;11.75;7.22;;;;;;;-0.64;51.13;95456.03;5026592;28;20180;-70
2022/01/24 06:43:58;;;;;;;7.45;6.53;;;;;;;-0.44;51.09;95462.34;5025804;28;20198;-70
2022/01/24 06:46:24;;;;;;;7.40;5.53;;;;;;;-0.46;50.49;95470.16;5008323;28;20287;-71
2022/01/24 06:48:49;;;;;;;7.57;6.03;;;;;;;-0.08;49.58;95463.28;5007986;28;20192;-69
2022/01/24 06:51:17;;;;;;;6.23;5.63;;;;;;;0.09;48.50;95469.78;5025560;28;20192;-70
2022/01/24 06:53:42;;;;;;;5.95;5.35;;;;;;;0.16;47.72;95466.66;4999579;28;20260;-69
2022/01/24 06:56:09;;;;;;;7.30;5.20;;;;;;;-0.22;47.77;95469.41;5026762;28;20264;-69
2022/01/24 06:58:35;;;;;;;3.22;2.28;;;;;;;-0.78;48.96;95472.38;5026727;28;20188;-69
2022/01/24 07:01:01;;;;;;;6.00;4.30;;;;;;;-1.29;50.25;95464.66;5022597;28;20195;-69
2022/01/24 07:03:27;;;;;;;11.90;7.73;;;;;;;-0.91;50.41;95468.97;5022905;28;20184;-69
2022/01/24 07:05:52;;;;;;;7.20;5.63;;;;;;;-1.02;50.83;95467.97;5027170;28;20434;-69
2022/01/24 07:08:18;;;;;;;9.73;7.13;;;;;;;-0.88;50.48;95468.78;5009140;28;20191;-69
2022/01/24 07:10:44;;;;;;;13.10;10.07;;;;;;;-1.17;51.62;95476.69;5026668;28;20196;-69
2022/01/24 07:13:09;;;;;;;7.50;6.80;;;;;;;-0.81;50.87;95477.72;5026107;28;20188;-70
2022/01/24 07:15:42;;;;;;;5.23;4.83;;;;;;;-1.08;50.54;95483.81;5006572;28;20195;-69
2022/01/24 07:20:39;;;;;;;10.02;8.60;;;;;;;-0.98;52.13;95486.56;5023159;28;20215;-70
2022/01/24 07:23:05;;;;;;;9.87;7.03;;;;;;;-0.87;51.37;95485.88;5024483;28;20188;-70
2022/01/24 07:25:31;;;;;;;10.40;8.00;;;;;;;-0.61;49.71;95492.63;5024661;28;20206;-70
2022/01/24 07:27:57;;;;;;;9.13;7.67;;;;;;;-0.37;49.04;95497.00;5029050;28;20184;-70
2022/01/24 07:30:23;;;;;;;10.77;6.05;;;;;;;-0.37;49.77;95499.56;5025728;28;20493;-69
2022/01/24 07:32:49;;;;;;;2.53;2.20;;;;;;;-0.14;48.23;95507.44;5023654;28;20184;-70
2022/01/24 07:35:14;;;;;;;3.60;3.27;;;;;;;-0.64;49.12;95503.09;5025844;28;20809;-69
2022/01/24 07:37:40;;;;;;;7.73;5.93;;;;;;;-0.80;49.33;95497.34;5026124;28;20184;-69
2022/01/24 07:40:08;;;;;;;6.70;5.97;;;;;;;-0.76;49.99;95509.06;5025658;28;20199;-70
2022/01/24 07:42:53;;;;;;;8.35;6.38;;;;;;;-0.54;50.24;95507.63;5025123;28;20176;-70
2022/01/24 07:45:20;;;;;;;8.82;7.15;;;;;;;-0.37;50.11;95515.00;5024200;28;20188;-70
2022/01/24 07:47:49;;;;;;;6.15;5.60;;;;;;;-0.24;49.09;95518.34;5022139;28;20623;-69
2022/01/24 07:50:20;;;;;;;9.80;6.68;;;;;;;-0.21;48.73;95525.88;5022791;28;20184;-69
2022/01/24 07:52:46;;;;;;;8.98;6.53;;;;;;;0.30;47.75;95524.06;5021437;28;20223;-70
2022/01/24 07:55:12;;;;;;;7.60;6.80;;;;;;;0.31;47.44;95520.56;5007555;28;20203;-70
2022/01/24 07:57:38;;;;;;;7.15;6.43;;;;;;;0.25;47.12;95526.13;5006973;28;20188;-69
2022/01/24 08:00:06;;;;;;;5.10;4.07;;;;;;;0.24;46.89;95538.19;5024922;28;20624;-70
2022/01/24 08:02:32;;;;;;;8.38;5.93;;;;;;;0.25;46.99;95542.41;5006257;28;20192;-69
2022/01/24 08:04:58;;;;;;;6.90;6.13;;;;;;;-0.30;48.34;95543.69;5017992;28;20278;-69
2022/01/24 08:07:23;;;;;;;8.80;5.87;;;;;;;-0.07;48.71;95544.66;5025143;28;20863;-71
2022/01/24 08:09:48;;;;;;;8.27;7.20;;;;;;;-0.23;49.51;95548.31;5017037;28;20302;-71
2022/01/24 08:12:14;;;;;;;10.90;5.40;;;;;;;0.00;48.12;95553.59;5026239;28;20276;-71
2022/01/24 08:14:39;;;;;;;7.87;5.37;;;;;;;-0.27;49.80;95549.41;5024803;28;20283;-71
2022/01/24 08:17:05;;;;;;;10.10;6.30;;;;;;;-0.33;50.58;95555.00;5024635;28;20211;-71
2022/01/24 08:19:32;;;;;;;7.80;6.83;;;;;;;0.09;49.70;95557.28;5021158;28;20251;-72
2022/01/24 08:21:58;;;;;;;10.27;7.75;;;;;;;0.01;49.51;95565.53;5001067;28;20185;-72
2022/01/24 08:24:24;;;;;;;8.53;6.63;;;;;;;0.25;48.85;95567.31;5019264;28;20187;-72
2022/01/24 08:26:50;;;;;;;8.18;6.72;;;;;;;0.58;48.33;95564.91;5024245;28;20228;-70
2022/01/24 08:29:16;;;;;;;6.97;6.30;;;;;;;0.55;48.36;95570.31;5021603;28;20298;-69
2022/01/24 08:31:41;;;;;;;10.37;6.80;;;;;;;0.27;48.89;95570.63;5006359;28;20458;-70
2022/01/24 08:34:07;;;;;;;6.10;5.43;;;;;;;0.31;47.66;95582.34;5023629;28;20411;-71
2022/01/24 08:36:33;;;;;;;6.60;5.17;;;;;;;0.12;48.37;95578.47;5024597;28;20195;-70
2022/01/24 08:39:06;;;;;;;6.65;5.93;;;;;;;0.86;47.28;95583.53;5024454;28;20212;-69
2022/01/24 08:41:42;;;;;;;9.57;7.30;;;;;;;0.78;46.44;95581.50;5024188;28;20180;-70
2022/01/24 08:44:32;;;;;;;6.93;5.38;;;;;;;0.39;47.50;95585.19;5023165;28;20199;-71
2022/01/24 08:46:58;;;;;;;6.47;5.88;;;;;;;0.09;48.65;95588.97;5022426;28;20262;-70
2022/01/24 08:49:23;;;;;;;9.40;5.45;;;;;;;1.05;46.68;95587.34;5019380;28;20191;-70
2022/01/24 08:51:49;;;;;;;8.07;6.20;;;;;;;1.00;47.39;95594.59;5025363;28;20544;-71
2022/01/24 08:54:15;;;;;;;7.83;7.07;;;;;;;0.11;48.70;95586.28;5017834;28;20192;-70
2022/01/24 08:56:40;;;;;;;24.40;6.27;;;;;;;0.61;47.47;95584.50;5023233;28;20196;-71
2022/01/24 08:59:06;;;;;;;7.73;6.83;;;;;;;1.45;45.44;95592.94;5020303;28;20204;-72
2022/01/24 09:01:33;;;;;;;8.97;6.63;;;;;;;1.84;44.72;95587.47;5032696;28;20434;-70
2022/01/24 09:03:59;;;;;;;10.07;7.30;;;;;;;1.95;44.57;95584.91;5025332;28;20188;-71
2022/01/24 09:06:25;;;;;;;9.70;7.60;;;;;;;2.00;44.10;95585.38;5028115;28;20222;-70
2022/01/24 09:08:59;;;;;;;7.40;6.65;;;;;;;2.35;44.11;95589.53;5027786;28;20435;-71
2022/01/24 09:11:29;;;;;;;10.88;7.63;;;;;;;1.86;44.82;95590.75;5027294;28;20203;-71
2022/01/24 09:13:56;;;;;;;7.85;7.13;;;;;;;2.17;44.38;95588.41;5026667;28;20255;-71
2022/01/24 09:16:22;;;;;;;8.60;6.75;;;;;;;2.35;44.61;95584.38;5029414;28;20208;-70
2022/01/24 09:18:48;;;;;;;10.17;7.80;;;;;;;2.37;44.77;95594.59;5025960;28;20203;-70
2022/01/24 09:21:13;;;;;;;13.13;8.33;;;;;;;2.36;44.48;95595.56;5016327;28;20191;-71
2022/01/24 09:23:38;;;;;;;10.97;8.47;;;;;;;2.31;44.80;95593.31;5027051;28;20450;-71
2022/01/24 09:26:04;;;;;;;15.57;9.03;;;;;;;2.56;44.92;95599.13;5027174;28;20238;-71
2022/01/24 09:28:30;;;;;;;12.17;8.20;;;;;;;2.79;43.76;95595.56;5008840;28;20200;-72
2022/01/24 09:30:57;;;;;;;9.97;8.17;;;;;;;2.29;44.10;95590.84;5027287;28;20219;-71
2022/01/24 09:33:48;;;;;;;8.48;7.30;;;;;;;3.21;40.71;95590.44;5027067;28;20197;-72
2022/01/24 09:36:14;;;;;;;9.80;7.18;;;;;;;3.14;40.91;95581.53;5021165;28;20244;-71
2022/01/24 09:38:40;;;;;;;11.57;7.80;;;;;;;2.71;42.53;95588.44;5018533;28;20675;-70
2022/01/24 09:41:11;;;;;;;9.23;6.80;;;;;;;2.35;41.78;95589.53;5004668;28;20447;-71
2022/01/24 09:43:36;;;;;;;8.75;6.60;;;;;;;1.96;40.61;95591.72;5027232;28;20192;-70
2022/01/24 09:46:03;;;;;;;10.57;6.73;;;;;;;1.43;42.50;95592.25;5027537;28;20214;-71
2022/01/24 09:48:29;;;;;;;8.32;6.55;;;;;;;1.59;41.74;95594.50;5027072;28;20192;-71
2022/01/24 09:50:55;;;;;;;5.93;5.30;;;;;;;1.67;40.37;95589.59;5026082;28;20207;-72
2022/01/24 09:53:22;;;;;;;8.67;6.80;;;;;;;0.76;43.00;95591.13;5026875;28;20292;-72
2022/01/24 09:55:49;;;;;;;9.30;7.80;;;;;;;1.70;41.44;95584.19;5027254;28;20291;-72
2022/01/24 09:58:15;;;;;;;12.15;7.85;;;;;;;1.19;43.23;95589.72;5023681;28;20184;-72
2022/01/24 10:00:43;;;;;;;10.32;8.98;;;;;;;0.90;43.18;95584.94;5028428;28;20183;-71
2022/01/24 10:03:12;;;;;;;8.48;7.65;;;;;;;0.77;43.50;95590.16;5026765;28;20192;-71
2022/01/24 10:05:42;;;;;;;8.25;6.03;;;;;;;0.69;42.51;95583.94;5027896;28;20291;-71
2022/01/24 10:08:16;;;;;;;9.48;8.48;;;;;;;0.45;44.75;95584.75;5010758;28;20256;-71
2022/01/24 10:10:52;;;;;;;10.20;6.70;;;;;;;1.17;42.60;95576.13;5027731;28;20559;-71
2022/01/24 10:16:33;;;;;;;6.93;6.22;;;;;;;-0.02;43.66;95581.16;5029422;28;20609;-71
2022/01/24 10:19:06;;;;;;;6.68;5.95;;;;;;;0.42;43.61;95572.09;5024441;28;20180;-71
2022/01/24 10:21:39;;;;;;;10.02;7.07;;;;;;;1.14;43.08;95576.38;5006978;28;20217;-72
2022/01/24 10:24:05;;;;;;;12.13;7.38;;;;;;;1.74;42.06;95571.88;5024730;28;20724;-71
2022/01/24 10:26:30;;;;;;;7.40;6.37;;;;;;;1.86;40.90;95572.69;5027978;28;20331;-73
2022/01/24 10:28:55;;;;;;;11.10;6.17;;;;;;;2.24;40.61;95574.91;5027303;28;20211;-71
2022/01/24 10:31:29;;;;;;;11.90;9.20;;;;;;;1.83;42.03;95586.66;5031202;28;20673;-71
2022/01/24 10:34:05;;;;;;;10.15;7.53;;;;;;;1.29;41.86;95588.13;5023519;28;20185;-71
2022/01/24 10:36:55;;;;;;;7.75;6.82;;;;;;;1.20;41.20;95585.41;5008943;28;20251;-71
2022/01/24 10:39:43;;;;;;;7.22;6.47;;;;;;;1.17;41.62;95583.88;5013450;28;20322;-71
2022/01/24 10:42:23;;;;;;;7.70;6.95;;;;;;;0.64;42.63;95580.88;5025693;28;20181;-71
2022/01/24 10:44:49;;;;;;;6.47;5.80;;;;;;;1.02;41.51;95582.41;5028551;28;20187;-70
2022/01/24 10:47:24;;;;;;;8.07;6.10;;;;;;;1.24;41.13;95581.66;5026038;28;20188;-70
2022/01/24 10:49:54;;;;;;;9.45;6.50;;;;;;;1.39;40.68;95580.53;5030885;28;20509;-70
2022/01/24 10:52:28;;;;;;;7.65;6.55;;;;;;;1.57;40.06;95586.03;5022695;28;20206;-71
2022/01/24 10:55:15;;;;;;;6.93;5.82;;;;;;;1.54;40.72;95589.69;5022398;28;20276;-71
2022/01/24 10:57:42;;;;;;;13.07;7.60;;;;;;;1.95;40.03;95582.31;5005798;28;20358;-71
2022/01/24 11:00:14;;;;;;;6.00;5.28;;;;;;;1.67;39.92;95584.44;5023261;28;20212;-71
2022/01/24 11:02:42;;;;;;;7.13;6.43;;;;;;;1.02;42.29;95583.22;5022560;28;20191;-71
2022/01/24 11:05:33;;;;;;;11.70;6.10;;;;;;;0.96;41.60;95587.06;5007941;28;20207;-72
2022/01/24 11:08:09;;;;;;;6.50;4.13;;;;;;;0.32;42.59;95589.13;5007140;28;20206;-70
2022/01/24 11:10:51;;;;;;;4.90;1.98;;;;;;;0.37;42.12;95589.63;5029234;28;20184;-69
2022/01/24 11:13:24;;;;;;;6.55;5.45;;;;;;;-0.04;43.95;95583.03;5030585;28;20536;-69
2022/01/24 11:15:56;;;;;;;10.00;8.25;;;;;;;-0.43;45.45;95583.06;5025371;28;20252;-69
2022/01/24 11:18:25;;;;;;;9.40;6.75;;;;;;;-0.51;45.29;95590.50;5025419;28;20226;-70
2022/01/24 11:21:01;;;;;;;6.82;6.13;;;;;;;0.67;43.60;95590.97;5025138;28;20176;-71
2022/01/24 11:23:28;;;;;;;14.68;7.30;;;;;;;0.24;43.54;95591.41;5003327;28;20199;-71
2022/01/24 11:25:57;;;;;;;7.63;5.72;;;;;;;0.36;42.09;95593.13;5007734;28;20224;-70
2022/01/24 11:28:23;;;;;;;7.97;6.95;;;;;;;0.51;43.28;95593.78;4996368;28;20216;-71
2022/01/24 11:30:54;;;;;;;9.30;7.17;;;;;;;0.61;42.92;95587.06;5026931;28;20211;-71
2022/01/24 11:33:38;;;;;;;3.45;3.05;;;;;;;0.64;41.17;95586.00;5026163;28;20176;-73
2022/01/24 11:36:07;;;;;;;6.40;5.80;;;;;;;0.53;41.10;95582.47;5021037;28;20188;-70
2022/01/24 11:38:44;;;;;;;6.25;4.78;;;;;;;0.68;41.65;95585.66;5027340;28;20216;-70
2022/01/24 11:41:21;;;;;;;10.65;6.47;;;;;;;1.85;41.35;95581.38;4996793;28;20188;-72
2022/01/24 11:43:50;;;;;;;7.60;5.55;;;;;;;2.90;38.16;95572.25;5023460;28;20196;-71
2022/01/24 11:46:37;;;;;;;7.78;5.72;;;;;;;2.34;38.40;95580.97;5024337;28;20180;-71
2022/01/24 11:49:14;;;;;;;6.13;4.75;;;;;;;1.64;38.92;95578.69;5005951;28;20212;-72
2022/01/24 11:51:41;;;;;;;7.72;6.55;;;;;;;1.41;39.40;95585.56;5009257;28;20243;-73
2022/01/24 11:54:33;;;;;;;6.20;5.28;;;;;;;1.64;39.32;95578.69;5008420;28;20192;-71
2022/01/24 11:57:34;;;;;;;7.93;5.53;;;;;;;1.27;38.90;95582.28;5025040;28;20256;-71
2022/01/24 12:00:03;;;;;;;7.03;6.28;;;;;;;1.74;38.38;95575.25;5014408;28;20184;-70
2022/01/24 12:02:32;;;;;;;4.72;4.00;;;;;;;0.86;37.63;95583.53;5026456;28;20271;-70
2022/01/24 12:05:08;;;;;;;8.27;5.80;;;;;;;0.55;39.67;95585.75;5028565;28;20199;-71
2022/01/24 12:07:43;;;;;;;4.28;3.90;;;;;;;0.48;40.16;95592.25;5026977;28;20215;-70
2022/01/24 12:10:21;;;;;;;7.20;4.88;;;;;;;-0.35;41.91;95592.84;5023725;28;20180;-70
2022/01/24 12:12:59;;;;;;;7.53;5.82;;;;;;;0.07;41.32;95593.41;5032807;28;20211;-71
2022/01/24 12:15:40;;;;;;;7.63;5.32;;;;;;;0.60;39.91;95582.84;5033380;28;20180;-71
2022/01/24 12:18:11;;;;;;;5.75;4.68;;;;;;;0.52;40.38;95603.97;5008381;28;20184;-71
2022/01/24 12:20:37;;;;;;;7.80;6.80;;;;;;;0.76;39.97;95591.13;5011109;28;20192;-70
2022/01/24 12:23:24;;;;;;;6.93;5.80;;;;;;;0.68;41.15;95590.00;5007148;28;20199;-71
2022/01/24 12:25:57;;;;;;;8.18;5.22;;;;;;;0.47;40.13;95598.31;5008677;28;20362;-70
2022/01/24 12:28:29;;;;;;;9.25;5.50;;;;;;;1.14;40.38;95591.84;5024656;28;20180;-70
2022/01/24 12:31:04;;;;;;;10.40;6.40;;;;;;;-0.02;41.18;95586.31;5024275;28;20493;-71
2022/01/24 12:33:50;;;;;;;8.00;5.07;;;;;;;0.60;40.68;95587.97;5001154;28;20203;-71
2022/01/24 12:36:16;;;;;;;8.68;5.72;;;;;;;0.54;40.68;95594.41;5027213;28;20191;-71
2022/01/24 12:38:52;;;;;;;5.13;4.40;;;;;;;-0.49;39.73;95605.81;5023319;28;20188;-71
2022/01/24 12:41:26;;;;;;;6.43;4.82;;;;;;;-0.29;40.07;95597.56;5020889;28;20175;-71
2022/01/24 12:46:30;;;;;;;5.72;5.18;;;;;;;-0.12;41.65;95611.84;5036291;28;20176;-71
2022/01/24 12:48:57;;;;;;;6.68;6.13;;;;;;;0.09;41.15;95619.84;5028383;28;20275;-71
2022/01/24 12:51:24;;;;;;;7.15;5.43;;;;;;;-0.36;42.76;95619.50;5026185;28;20204;-71
2022/01/24 12:53:51;;;;;;;6.72;6.03;;;;;;;-0.11;43.65;95622.97;5031105;28;20180;-71
2022/01/24 12:56:18;;;;;;;7.10;6.40;;;;;;;-0.43;44.81;95623.41;5026617;28;20287;-69
2022/01/24 12:58:48;;;;;;;11.18;6.80;;;;;;;-0.37;45.24;95622.97;5027101;28;20559;-72
2022/01/24 13:01:26;;;;;;;7.35;6.57;;;;;;;-0.77;46.27;95625.63;5034018;28;20218;-73
2022/01/24 13:03:57;;;;;;;8.00;6.22;;;;;;;0.17;44.05;95621.88;5029767;28;20194;-75
2022/01/24 13:06:24;;;;;;;10.73;6.75;;;;;;;-0.25;44.76;95611.88;5027762;28;20202;-72
2022/01/24 13:09:13;;;;;;;10.93;8.05;;;;;;;0.11;44.67;95607.69;5025488;28;20682;-72
2022/01/24 13:11:54;;;;;;;8.02;6.00;;;;;;;0.97;42.06;95618.84;5024969;28;20207;-69
2022/01/24 13:25:05;;;;;;;11.25;8.13;;;;;;;-0.20;41.78;95604.66;5026789;28;20215;-69
2022/01/24 13:27:39;;;;;;;5.80;5.20;;;;;;;-0.59;41.72;95600.44;5010073;28;20239;-69
2022/01/24 13:30:07;;;;;;;8.23;6.57;;;;;;;-0.62;43.44;95608.38;5010159;28;20242;-70
2022/01/24 13:32:46;;;;;;;11.15;8.20;;;;;;;-0.14;42.18;95610.31;5029517;28;20335;-70
2022/01/24 13:35:20;;;;;;;10.27;7.20;;;;;;;0.03;42.76;95609.97;5023731;28;20192;-70
2022/01/24 13:37:46;;;;;;;12.70;8.43;;;;;;;-0.21;42.93;95621.03;5025956;28;20670;-69
2022/01/24 13:40:12;;;;;;;11.70;6.77;;;;;;;0.05;42.88;95622.75;5027773;28;20218;-70
2022/01/24 13:42:37;;;;;;;10.10;7.25;;;;;;;-0.26;42.22;95629.97;5027086;28;20423;-70
2022/01/24 13:45:05;;;;;;;7.37;6.37;;;;;;;-0.18;42.53;95625.13;5024987;28;20192;-70